createdAt,value
2017-02-28T00:00:46.408Z,20.3
2017-02-28T00:03:18.893Z,20.3
2017-02-28T00:05:51.388Z,20.3
2017-02-28T00:08:23.875Z,20.3
2017-02-28T00:10:56.369Z,20.3
2017-02-28T00:13:28.832Z,20.3
2017-02-28T00:16:01.748Z,20.3
2017-02-28T00:18:34.252Z,20.3
2017-02-28T00:21:07.160Z,20.3
2017-02-28T00:23:39.649Z,20.3
2017-02-28T00:26:12.558Z,20.3
2017-02-28T00:28:45.059Z,20.3
2017-02-28T00:31:17.978Z,20.3
2017-02-28T00:33:50.481Z,20.3
2017-02-28T00:36:22.964Z,20.3
2017-02-28T00:38:55.873Z,20.3
2017-02-28T00:41:28.366Z,20.3
2017-02-28T00:44:01.275Z,20.3
2017-02-28T00:46:33.773Z,20.3
2017-02-28T00:49:06.250Z,20.3
2017-02-28T00:51:38.746Z,20.3
2017-02-28T00:54:11.229Z,20.3
2017-02-28T00:56:43.723Z,20.3
2017-02-28T00:59:16.207Z,20.3
2017-02-28T01:01:48.706Z,20.3
2017-02-28T01:04:21.199Z,20.3
2017-02-28T01:06:53.998Z,20.3
2017-02-28T01:09:26.483Z,20.3
2017-02-28T01:11:58.963Z,20.3
2017-02-28T01:14:31.465Z,20.3
2017-02-28T01:17:03.943Z,20.3
2017-02-28T01:19:36.444Z,20.3
2017-02-28T01:22:08.924Z,20.3
2017-02-28T01:24:41.447Z,20.3
2017-02-28T01:27:13.934Z,20.3
2017-02-28T01:29:46.446Z,20.3
2017-02-28T01:32:18.948Z,20.3
2017-02-28T01:34:51.445Z,20.3
2017-02-28T01:37:23.935Z,20.3
2017-02-28T01:39:56.423Z,20.3
2017-02-28T01:42:28.887Z,20.3
2017-02-28T01:45:01.373Z,20.3
2017-02-28T01:47:33.865Z,20.3
2017-02-28T01:50:06.377Z,20.3
2017-02-28T01:52:38.856Z,20.3
2017-02-28T01:55:11.327Z,20.3
2017-02-28T01:57:43.804Z,20.3
2017-02-28T02:00:16.293Z,20.3
2017-02-28T02:02:49.219Z,20.3
2017-02-28T02:05:22.136Z,20.3
2017-02-28T02:07:54.621Z,20.3
2017-02-28T02:10:27.095Z,20.3
2017-02-28T02:12:59.573Z,20.3
2017-02-28T02:15:32.490Z,20.3
2017-02-28T02:18:04.981Z,20.3
2017-02-28T02:20:37.444Z,20.3
2017-02-28T02:23:09.945Z,20.3
2017-02-28T02:25:42.861Z,20.3
2017-02-28T02:28:15.777Z,20.3
2017-02-28T02:30:48.269Z,20.3
2017-02-28T02:33:21.198Z,20.3
2017-02-28T02:35:54.539Z,20.3
2017-02-28T02:38:27.043Z,20.3
2017-02-28T02:40:59.538Z,20.3
2017-02-28T02:43:32.021Z,20.3
2017-02-28T02:46:04.518Z,20.3
2017-02-28T02:48:37.004Z,20.3
2017-02-28T02:51:09.959Z,20.3
2017-02-28T02:53:42.429Z,20.3
2017-02-28T02:56:14.906Z,20.3
2017-02-28T02:58:47.425Z,20.3
2017-02-28T03:01:19.941Z,20.3
2017-02-28T03:03:52.413Z,20.3
2017-02-28T03:06:24.910Z,20.3
2017-02-28T03:08:57.403Z,20.3
2017-02-28T03:11:29.881Z,20.3
2017-02-28T03:14:02.819Z,20.3
2017-02-28T03:16:35.296Z,20.3
2017-02-28T03:19:08.215Z,20.3
2017-02-28T03:21:40.694Z,20.3
2017-02-28T03:24:13.208Z,20.3
2017-02-28T03:26:46.110Z,20.3
2017-02-28T03:29:19.449Z,20.3
2017-02-28T03:31:51.946Z,20.3
2017-02-28T03:34:24.423Z,20.3
2017-02-28T03:36:56.911Z,20.4
2017-02-28T03:39:29.387Z,20.3
2017-02-28T03:42:01.873Z,20.3
2017-02-28T03:44:34.789Z,20.3
2017-02-28T03:47:07.276Z,20.3
2017-02-28T03:49:39.756Z,20.4
2017-02-28T03:52:12.254Z,20.4
2017-02-28T03:54:45.384Z,20.4
2017-02-28T03:57:18.744Z,20.4
2017-02-28T03:59:51.445Z,20.3
2017-02-28T04:02:23.927Z,20.4
2017-02-28T04:04:56.414Z,20.4
2017-02-28T04:07:28.900Z,20.3
2017-02-28T04:10:01.810Z,20.4
2017-02-28T04:12:34.308Z,20.4
2017-02-28T04:15:06.795Z,20.4
2017-02-28T04:17:40.129Z,20.4
2017-02-28T04:20:13.032Z,20.3
2017-02-28T04:22:45.545Z,20.4
2017-02-28T04:25:18.013Z,20.4
2017-02-28T04:27:50.535Z,20.4
2017-02-28T04:30:23.438Z,20.4
2017-02-28T04:32:56.783Z,20.4
2017-02-28T04:35:29.693Z,20.4
2017-02-28T04:38:02.177Z,20.4
2017-02-28T04:40:34.673Z,20.4
2017-02-28T04:43:07.154Z,20.4
2017-02-28T04:45:39.659Z,20.4
2017-02-28T04:48:12.160Z,20.4
2017-02-28T04:50:44.629Z,20.4
2017-02-28T04:53:17.146Z,20.4
2017-02-28T04:55:49.629Z,20.4
2017-02-28T04:58:22.133Z,20.4
2017-02-28T05:00:54.646Z,20.4
2017-02-28T05:03:27.135Z,20.4
2017-02-28T05:06:00.049Z,20.4
2017-02-28T05:08:32.546Z,20.4
2017-02-28T05:11:05.022Z,20.4
2017-02-28T05:13:37.536Z,20.4
2017-02-28T05:16:10.031Z,20.4
2017-02-28T05:18:42.513Z,20.4
2017-02-28T05:21:14.997Z,20.4
2017-02-28T05:23:47.497Z,20.4
2017-02-28T05:26:20.009Z,20.4
2017-02-28T05:28:52.941Z,20.4
2017-02-28T05:31:25.453Z,20.4
2017-02-28T05:33:57.934Z,20.4
2017-02-28T05:36:30.476Z,20.4
2017-02-28T05:39:03.395Z,20.4
2017-02-28T05:41:36.330Z,20.4
2017-02-28T05:44:09.251Z,20.4
2017-02-28T05:46:41.715Z,20.4
2017-02-28T05:49:14.215Z,20.4
2017-02-28T05:51:47.147Z,20.4
2017-02-28T05:54:20.496Z,20.4
2017-02-28T05:56:53.406Z,20.4
2017-02-28T05:59:25.914Z,20.4
2017-02-28T06:01:58.399Z,20.4
2017-02-28T06:04:30.895Z,20.4
2017-02-28T06:07:03.383Z,20.4
2017-02-28T06:09:35.867Z,20.4
2017-02-28T06:12:08.776Z,20.4
2017-02-28T06:14:41.259Z,20.4
2017-02-28T06:17:13.754Z,20.3
2017-02-28T06:19:46.248Z,20.3
2017-02-28T06:22:19.212Z,20.3
2017-02-28T06:24:51.696Z,20.3
2017-02-28T06:27:24.212Z,20.3
2017-02-28T06:29:57.156Z,20.3
2017-02-28T06:32:29.648Z,20.3
2017-02-28T06:35:03.016Z,20.3
2017-02-28T06:37:35.520Z,20.3
2017-02-28T06:40:08.014Z,20.3
2017-02-28T06:42:41.905Z,20.4
2017-02-28T06:45:22.835Z,20.3
2017-02-28T06:47:55.784Z,20.3
2017-02-28T06:50:28.274Z,20.3
2017-02-28T06:53:00.787Z,20.3
2017-02-28T06:55:33.688Z,20.3
2017-02-28T06:58:06.206Z,20.3
2017-02-28T07:00:39.101Z,20.3
2017-02-28T07:03:11.592Z,20.3
2017-02-28T07:05:44.082Z,20.3
2017-02-28T07:08:16.589Z,20.3
2017-02-28T07:10:49.098Z,20.3
2017-02-28T07:13:21.588Z,20.3
2017-02-28T07:15:54.069Z,20.3
2017-02-28T07:18:26.561Z,20.3
2017-02-28T07:20:59.476Z,20.3
2017-02-28T07:23:31.960Z,20.3
2017-02-28T07:26:04.474Z,20.3
2017-02-28T07:28:37.362Z,20.3
2017-02-28T07:31:09.833Z,20.2
2017-02-28T07:33:42.309Z,20.2
2017-02-28T07:36:14.792Z,20.2
2017-02-28T07:38:47.269Z,20.2
2017-02-28T07:41:19.759Z,20.2
2017-02-28T07:43:52.238Z,20.2
2017-02-28T07:46:24.732Z,20.2
2017-02-28T07:48:57.658Z,20.2
2017-02-28T07:51:31.444Z,20.2
2017-02-28T07:54:03.922Z,20.3
2017-02-28T07:56:36.436Z,20.3
2017-02-28T07:59:08.942Z,20.3
2017-02-28T08:01:41.452Z,20.3
2017-02-28T08:04:13.941Z,20.3
2017-02-28T08:06:46.853Z,20.3
2017-02-28T08:09:19.350Z,20.3
2017-02-28T08:11:51.856Z,20.3
2017-02-28T08:14:24.352Z,20.3
2017-02-28T08:16:57.262Z,20.3
2017-02-28T08:19:29.750Z,20.3
2017-02-28T08:22:02.234Z,20.3
2017-02-28T08:24:34.724Z,20.3
2017-02-28T08:27:07.191Z,20.3
2017-02-28T08:29:39.679Z,20.3
2017-02-28T08:32:12.164Z,20.3
2017-02-28T08:34:45.090Z,20.3
2017-02-28T08:37:17.577Z,20.3
2017-02-28T08:39:50.112Z,20.3
2017-02-28T08:42:23.046Z,20.3
2017-02-28T08:44:56.188Z,20.3
2017-02-28T08:47:28.670Z,20.3
2017-02-28T08:50:01.158Z,20.3
2017-02-28T08:52:33.664Z,20.3
2017-02-28T08:55:06.188Z,20.3
2017-02-28T08:57:38.684Z,20.3
2017-02-28T09:00:11.191Z,20.3
2017-02-28T09:02:43.684Z,20.3
2017-02-28T09:05:16.171Z,20.3
2017-02-28T09:07:48.889Z,20.3
2017-02-28T09:10:21.401Z,20.3
2017-02-28T09:12:53.907Z,20.3
2017-02-28T09:15:26.815Z,20.3
2017-02-28T09:17:59.324Z,20.3
2017-02-28T09:20:31.810Z,20.3
2017-02-28T09:23:04.717Z,20.3
2017-02-28T09:25:37.209Z,20.3
2017-02-28T09:28:09.693Z,20.3
2017-02-28T09:30:42.196Z,20.3
2017-02-28T09:33:14.681Z,20.3
2017-02-28T09:35:47.184Z,20.4
2017-02-28T09:38:19.688Z,20.4
2017-02-28T09:40:52.182Z,20.4
2017-02-28T09:43:25.116Z,20.4
2017-02-28T09:45:58.031Z,20.4
2017-02-28T09:48:30.520Z,20.4
2017-02-28T09:51:03.013Z,20.4
2017-02-28T09:53:35.491Z,20.4
2017-02-28T09:56:07.990Z,20.4
2017-02-28T09:58:40.488Z,20.4
2017-02-28T10:01:12.957Z,20.4
2017-02-28T10:03:45.453Z,20.5
2017-02-28T10:06:17.932Z,20.5
2017-02-28T10:08:50.421Z,20.5
2017-02-28T10:11:22.918Z,20.5
2017-02-28T10:13:55.404Z,20.5
2017-02-28T10:16:27.902Z,20.5
2017-02-28T10:19:00.380Z,20.5
2017-02-28T10:21:33.281Z,20.5
2017-02-28T10:24:05.808Z,20.5
2017-02-28T10:26:38.302Z,20.5
2017-02-28T10:29:11.262Z,20.5
2017-02-28T10:31:43.750Z,20.4
2017-02-28T10:34:16.236Z,20.4
2017-02-28T10:36:49.144Z,20.3
2017-02-28T10:39:21.657Z,20.3
2017-02-28T10:41:54.144Z,20.3
2017-02-28T10:44:26.650Z,20.2
2017-02-28T10:46:59.614Z,20.2
2017-02-28T10:49:32.109Z,20.2
2017-02-28T10:52:04.601Z,20.1
2017-02-28T10:54:37.080Z,20.1
2017-02-28T10:57:09.574Z,20.1
2017-02-28T10:59:42.066Z,20.1
2017-02-28T11:02:14.955Z,20.1
2017-02-28T11:04:47.447Z,20.1
2017-02-28T11:07:19.927Z,20.2
2017-02-28T11:09:52.429Z,20.2
2017-02-28T11:12:25.322Z,20.2
2017-02-28T11:14:57.830Z,20.2
2017-02-28T11:17:30.306Z,20.2
2017-02-28T11:20:03.240Z,20.2
2017-02-28T11:22:35.746Z,20.2
2017-02-28T11:25:08.245Z,20.2
2017-02-28T11:27:40.744Z,20.2
2017-02-28T11:30:13.240Z,20.2
2017-02-28T11:32:45.738Z,20.2
2017-02-28T11:35:18.235Z,20.2
2017-02-28T11:37:50.720Z,20.2
2017-02-28T11:40:23.233Z,20.2
2017-02-28T11:42:55.729Z,20.3
2017-02-28T11:45:28.237Z,20.3
2017-02-28T11:48:00.747Z,20.3
2017-02-28T11:50:33.269Z,20.3
2017-02-28T11:53:05.749Z,20.3
2017-02-28T11:55:38.247Z,20.3
2017-02-28T11:58:10.718Z,20.3
2017-02-28T12:00:43.218Z,20.3
2017-02-28T12:03:15.733Z,20.3
2017-02-28T12:05:48.229Z,20.3
2017-02-28T12:08:20.738Z,20.3
2017-02-28T12:10:53.233Z,20.3
2017-02-28T12:13:25.734Z,20.3
2017-02-28T12:15:58.235Z,20.4
2017-02-28T12:18:30.732Z,20.3
2017-02-28T12:21:03.235Z,20.3
2017-02-28T12:23:35.729Z,20.4
2017-02-28T12:26:08.247Z,20.4
2017-02-28T12:28:41.153Z,20.4
2017-02-28T12:31:13.656Z,20.4
2017-02-28T12:33:46.154Z,20.4
2017-02-28T12:36:18.652Z,20.4
2017-02-28T12:38:51.153Z,20.4
2017-02-28T12:41:23.639Z,20.4
2017-02-28T12:43:56.168Z,20.4
2017-02-28T12:46:28.662Z,20.4
2017-02-28T12:49:01.171Z,20.4
2017-02-28T12:51:33.667Z,20.4
2017-02-28T12:54:06.147Z,20.4
2017-02-28T12:56:38.842Z,20.4
2017-02-28T12:59:11.343Z,20.4
2017-02-28T13:01:43.847Z,20.4
2017-02-28T13:04:16.756Z,20.4
2017-02-28T13:06:49.259Z,20.4
2017-02-28T13:09:21.732Z,20.4
2017-02-28T13:11:54.244Z,20.4
2017-02-28T13:14:26.749Z,20.4
2017-02-28T13:16:59.229Z,20.4
2017-02-28T13:19:31.713Z,20.4
2017-02-28T13:22:04.192Z,20.3
2017-02-28T13:24:36.705Z,20.3
2017-02-28T13:27:09.206Z,20.3
2017-02-28T13:29:41.714Z,20.3
2017-02-28T13:32:14.188Z,20.2
2017-02-28T13:34:46.705Z,20.2
2017-02-28T13:37:19.198Z,20.2
2017-02-28T13:39:51.679Z,20.1
2017-02-28T13:42:24.159Z,20.1
2017-02-28T13:44:56.662Z,20.1
2017-02-28T13:47:29.171Z,20.1
2017-02-28T13:50:01.673Z,20.1
2017-02-28T13:52:34.163Z,20.1
2017-02-28T13:55:06.644Z,20
2017-02-28T13:57:39.120Z,20
2017-02-28T14:00:11.618Z,20
2017-02-28T14:02:44.095Z,20
2017-02-28T14:05:16.627Z,20
2017-02-28T14:07:49.105Z,20
2017-02-28T14:10:21.617Z,19.9
2017-02-28T14:12:54.108Z,19.9
2017-02-28T14:15:27.018Z,19.9
2017-02-28T14:17:59.530Z,19.9
2017-02-28T14:20:32.031Z,19.9
2017-02-28T14:23:04.918Z,19.9
2017-02-28T14:25:37.834Z,19.9
2017-02-28T14:28:10.355Z,19.9
2017-02-28T14:30:42.868Z,20
2017-02-28T14:33:15.351Z,20
2017-02-28T14:35:47.848Z,20.1
2017-02-28T14:38:20.376Z,20.2
2017-02-28T14:40:52.873Z,20.2
2017-02-28T14:43:25.347Z,20.3
2017-02-28T14:45:57.849Z,20.3
2017-02-28T14:48:30.339Z,20.4
2017-02-28T14:51:02.855Z,20.5
2017-02-28T14:53:35.329Z,20.5
2017-02-28T14:56:07.833Z,20.6
2017-02-28T14:58:40.324Z,20.7
2017-02-28T15:01:12.815Z,20.8
2017-02-28T15:03:45.725Z,20.8
2017-02-28T15:06:18.255Z,20.9
2017-02-28T15:08:50.752Z,20.9
2017-02-28T15:11:23.253Z,20.9
2017-02-28T15:13:56.175Z,20.8
2017-02-28T15:16:28.692Z,20.8
2017-02-28T15:19:01.188Z,20.8
2017-02-28T15:21:33.677Z,20.8
2017-02-28T15:24:06.590Z,20.7
2017-02-28T15:26:39.077Z,20.6
2017-02-28T15:29:12.044Z,20.6
2017-02-28T15:31:44.527Z,20.6
2017-02-28T15:34:17.013Z,20.5
2017-02-28T15:36:49.487Z,20.5
2017-02-28T15:39:21.973Z,20.5
2017-02-28T15:41:54.894Z,20.5
2017-02-28T15:44:27.385Z,20.5
2017-02-28T15:46:59.869Z,20.5
2017-02-28T15:49:32.389Z,20.5
2017-02-28T15:52:04.927Z,20.4
2017-02-28T15:54:37.465Z,20.4
2017-02-28T15:57:10.375Z,20.4
2017-02-28T15:59:42.855Z,20.4
2017-02-28T16:02:15.359Z,20.4
2017-02-28T16:04:47.847Z,20.4
2017-02-28T16:07:20.329Z,20.3
2017-02-28T16:09:53.453Z,20.3
2017-02-28T16:12:25.941Z,20.3
2017-02-28T16:14:58.448Z,20.3
2017-02-28T16:17:30.948Z,20.3
2017-02-28T16:20:03.458Z,20.3
2017-02-28T16:22:35.947Z,20.3
2017-02-28T16:25:08.453Z,20.3
2017-02-28T16:27:40.957Z,20.3
2017-02-28T16:30:13.443Z,20.3
2017-02-28T16:32:45.931Z,20.4
2017-02-28T16:35:18.412Z,20.4
2017-02-28T16:37:51.359Z,20.4
2017-02-28T16:40:23.835Z,20.4
2017-02-28T16:42:56.749Z,20.4
2017-02-28T16:45:29.245Z,20.4
2017-02-28T16:48:01.760Z,20.4
2017-02-28T16:50:34.469Z,20.5
2017-02-28T16:53:07.376Z,20.5
2017-02-28T16:55:40.322Z,20.5
2017-02-28T16:58:12.798Z,20.5
2017-02-28T17:00:45.322Z,20.6
2017-02-28T17:03:18.247Z,20.6
2017-02-28T17:05:50.747Z,20.6
2017-02-28T17:08:23.239Z,20.6
2017-02-28T17:10:55.722Z,20.6
2017-02-28T17:13:28.631Z,20.7
2017-02-28T17:16:01.122Z,20.7
2017-02-28T17:18:33.594Z,20.7
2017-02-28T17:21:06.101Z,20.7
2017-02-28T17:23:38.586Z,20.7
2017-02-28T17:26:11.083Z,20.7
2017-02-28T17:28:43.576Z,20.7
2017-02-28T17:31:16.475Z,20.7
2017-02-28T17:33:48.972Z,20.6
2017-02-28T17:36:21.460Z,20.6
2017-02-28T17:38:53.971Z,20.6
2017-02-28T17:41:26.488Z,20.6
2017-02-28T17:43:58.984Z,20.5
2017-02-28T17:46:31.472Z,20.5
2017-02-28T17:49:03.982Z,20.5
2017-02-28T17:51:36.470Z,20.5
2017-02-28T17:54:08.949Z,20.5
2017-02-28T17:56:41.445Z,20.5
2017-02-28T17:59:13.923Z,20.4
2017-02-28T18:01:46.406Z,20.4
2017-02-28T18:04:18.902Z,20.4
2017-02-28T18:06:51.386Z,20.4
2017-02-28T18:09:23.894Z,20.4
2017-02-28T18:11:56.812Z,20.4
2017-02-28T18:14:29.307Z,20.4
2017-02-28T18:17:01.829Z,20.4
2017-02-28T18:19:34.760Z,20.4
2017-02-28T18:22:07.242Z,20.3
2017-02-28T18:24:39.725Z,20.3
2017-02-28T18:27:12.219Z,20.3
2017-02-28T18:29:44.711Z,20.3
2017-02-28T18:32:17.201Z,20.3
2017-02-28T18:34:50.127Z,20.3
2017-02-28T18:37:22.630Z,20.3
2017-02-28T18:39:55.115Z,20.3
2017-02-28T18:42:27.608Z,20.3
2017-02-28T18:45:00.095Z,20.3
2017-02-28T18:47:32.599Z,20.3
2017-02-28T18:50:05.074Z,20.2
2017-02-28T18:52:37.999Z,20.2
2017-02-28T18:55:10.506Z,20.2
2017-02-28T18:57:42.981Z,20.2
2017-02-28T19:00:15.474Z,20.2
2017-02-28T19:02:47.952Z,20.2
2017-02-28T19:05:20.451Z,20.2
2017-02-28T19:07:52.952Z,20.2
2017-02-28T19:10:25.860Z,20.2
2017-02-28T19:12:58.758Z,20.2
2017-02-28T19:15:31.259Z,20.2
2017-02-28T19:18:03.745Z,20.2
2017-02-28T19:20:36.261Z,20.1
2017-02-28T19:23:09.162Z,20.2
2017-02-28T19:25:41.657Z,20.2
2017-02-28T19:28:14.164Z,20.2
2017-02-28T19:30:46.670Z,20.2
2017-02-28T19:33:19.154Z,20.2
2017-02-28T19:35:52.073Z,20.2
2017-02-28T19:38:24.559Z,20.3
2017-02-28T19:40:57.512Z,20.3
2017-02-28T19:43:29.991Z,20.3
2017-02-28T19:46:02.481Z,20.3
2017-02-28T19:48:34.988Z,20.3
2017-02-28T19:51:07.478Z,20.3
2017-02-28T19:53:40.430Z,20.3
2017-02-28T19:56:12.932Z,20.4
2017-02-28T19:58:45.420Z,20.4
2017-02-28T20:01:17.936Z,20.4
2017-02-28T20:03:50.421Z,20.4
2017-02-28T20:06:22.918Z,20.4
2017-02-28T20:08:55.432Z,20.4
2017-02-28T20:11:27.929Z,20.4
2017-02-28T20:14:00.434Z,20.4
2017-02-28T20:16:33.340Z,20.4
2017-02-28T20:19:05.895Z,20.4
2017-02-28T20:21:38.378Z,20.4
2017-02-28T20:24:10.877Z,20.4
2017-02-28T20:26:43.359Z,20.4
2017-02-28T20:29:15.851Z,20.4
2017-02-28T20:31:48.329Z,20.4
2017-02-28T20:34:20.826Z,20.4
2017-02-28T20:36:53.771Z,20.4
2017-02-28T20:39:26.268Z,20.4
2017-02-28T20:41:59.219Z,20.4
2017-02-28T20:44:31.702Z,20.4
2017-02-28T20:47:04.627Z,20.4
2017-02-28T20:49:37.152Z,20.4
2017-02-28T20:52:10.479Z,20.5
2017-02-28T20:54:42.961Z,20.5
2017-02-28T20:57:15.444Z,20.5
2017-02-28T20:59:47.944Z,20.5
2017-02-28T21:02:20.451Z,20.5
2017-02-28T21:04:52.953Z,20.5
2017-02-28T21:07:25.865Z,20.5
2017-02-28T21:09:58.386Z,20.5
2017-02-28T21:12:30.902Z,20.5
2017-02-28T21:15:03.818Z,20.5
2017-02-28T21:17:36.760Z,20.5
2017-02-28T21:20:09.250Z,20.5
2017-02-28T21:22:41.769Z,20.5
2017-02-28T21:25:14.267Z,20.5
2017-02-28T21:27:46.968Z,20.5
2017-02-28T21:30:19.452Z,20.5
2017-02-28T21:32:52.384Z,20.5
2017-02-28T21:35:25.306Z,20.5
2017-02-28T21:37:58.232Z,20.5
2017-02-28T21:40:31.156Z,20.6
2017-02-28T21:43:04.093Z,20.5
2017-02-28T21:45:36.583Z,20.5
2017-02-28T21:48:09.513Z,20.6
2017-02-28T21:50:41.991Z,20.6
2017-02-28T21:53:14.468Z,20.6
2017-02-28T21:55:46.954Z,20.6
2017-02-28T21:58:19.460Z,20.6
2017-02-28T22:00:51.972Z,20.6
2017-02-28T22:03:24.498Z,20.6
2017-02-28T22:05:57.188Z,20.6
2017-02-28T22:08:29.885Z,20.6
2017-02-28T22:11:02.391Z,20.6
2017-02-28T22:13:34.882Z,20.6
2017-02-28T22:16:07.817Z,20.6
2017-02-28T22:18:40.314Z,20.6
2017-02-28T22:21:12.820Z,20.6
2017-02-28T22:23:45.326Z,20.6
2017-02-28T22:26:17.813Z,20.6
2017-02-28T22:28:50.299Z,20.5
2017-02-28T22:31:22.812Z,20.5
2017-02-28T22:33:55.305Z,20.5
2017-02-28T22:36:27.834Z,20.5
2017-02-28T22:39:00.330Z,20.5
2017-02-28T22:41:32.847Z,20.5
2017-02-28T22:44:05.346Z,20.5
2017-02-28T22:46:38.469Z,20.4
2017-02-28T22:49:11.014Z,20.4
2017-02-28T22:51:43.513Z,20.4
2017-02-28T22:54:16.001Z,20.4
2017-02-28T22:56:48.923Z,20.4
2017-02-28T22:59:21.410Z,20.4
2017-02-28T23:01:54.310Z,20.4
2017-02-28T23:04:26.820Z,20.4
2017-02-28T23:06:59.302Z,20.4
2017-02-28T23:09:31.825Z,20.4
2017-02-28T23:12:04.323Z,20.4
2017-02-28T23:14:37.434Z,20.4
2017-02-28T23:17:09.930Z,20.4
2017-02-28T23:19:42.844Z,20.4
2017-02-28T23:22:15.357Z,20.4
2017-02-28T23:24:47.890Z,20.4
2017-02-28T23:27:20.514Z,20.4
2017-02-28T23:29:53.989Z,20.4
2017-02-28T23:32:26.558Z,20.4
2017-02-28T23:34:59.091Z,20.4
2017-02-28T23:37:31.607Z,20.4
2017-02-28T23:40:04.500Z,20.4
2017-02-28T23:42:37.015Z,20.4
2017-02-28T23:45:09.569Z,20.4
2017-02-28T23:47:43.266Z,20.4
2017-02-28T23:50:15.760Z,20.4
2017-02-28T23:52:48.459Z,20.4
2017-02-28T23:55:21.338Z,20.4
2017-02-28T23:57:53.953Z,20.4
